Time;durP1;ratioP1;P1;durP2;ratioP2;P2;SDS_P1;SDS_P2;PMS_P1;PMS_P2;Temp;Humidity;BMP_temperature;BMP_pressure;BME280_temperature;BME280_humidity;BME280_pressure;Samples;Min_cycle;Max_cycle;Signal;HPM_P1;HPM_P2
2022/11/20 00:01:40;;;;;;;2.93;1.00;;;;;;;19.00;61.42;94056.81;5068871;28;20422;-75
2022/11/20 00:04:06;;;;;;;4.23;1.00;;;;;;;18.96;61.15;94063.78;5068838;28;20787;-75
2022/11/20 00:06:31;;;;;;;5.15;2.20;;;;;;;19.03;61.65;94078.38;5068730;28;20503;-76
2022/11/20 00:08:59;;;;;;;2.53;1.20;;;;;;;18.99;62.15;94077.34;5068840;28;20421;-76
2022/11/20 00:11:26;;;;;;;6.15;1.60;;;;;;;19.01;62.46;94082.41;5068551;28;20482;-76
2022/11/20 00:13:54;;;;;;;7.85;1.38;;;;;;;18.95;62.13;94086.97;5068323;28;20456;-76
2022/11/20 00:16:22;;;;;;;4.95;1.35;;;;;;;19.02;61.13;94081.34;5067906;28;20426;-76
2022/11/20 00:18:48;;;;;;;2.38;1.00;;;;;;;19.03;60.67;94067.69;5068151;28;20800;-75
2022/11/20 00:21:22;;;;;;;7.50;1.10;;;;;;;19.15;59.58;94036.09;5071728;28;20226;-76
2022/11/20 00:23:48;;;;;;;3.65;1.00;;;;;;;19.26;60.18;94062.69;5066191;28;20491;-76
2022/11/20 00:26:16;;;;;;;2.00;1.20;;;;;;;19.16;59.75;94044.91;5091250;28;20424;-76
2022/11/20 00:28:44;;;;;;;1.85;1.15;;;;;;;19.27;59.38;94080.28;5092942;28;20420;-76
2022/11/20 00:31:14;;;;;;;4.47;1.40;;;;;;;19.13;60.21;94064.94;5091553;28;20771;-76
2022/11/20 00:33:40;;;;;;;3.78;1.20;;;;;;;19.18;60.11;94056.09;5091384;28;20443;-76
2022/11/20 00:36:11;;;;;;;1.80;0.88;;;;;;;19.25;59.78;94075.22;5074196;28;20502;-76
2022/11/20 00:38:37;;;;;;;3.08;0.90;;;;;;;19.13;60.85;94050.78;5091772;28;20428;-76
2022/11/20 00:41:06;;;;;;;2.00;0.90;;;;;;;19.18;61.33;94032.88;5093346;28;20404;-76
2022/11/20 00:43:31;;;;;;;1.80;1.20;;;;;;;19.04;61.07;94063.97;5074405;28;20408;-76
2022/11/20 00:46:09;;;;;;;4.07;1.10;;;;;;;19.09;60.18;94063.13;5092261;28;20414;-78
2022/11/20 00:48:34;;;;;;;3.60;1.10;;;;;;;19.04;60.39;94090.63;5092245;28;20483;-76
2022/11/20 00:51:00;;;;;;;1.57;0.90;;;;;;;19.10;61.17;94065.50;5085466;28;20506;-76
2022/11/20 00:53:26;;;;;;;3.17;1.38;;;;;;;19.10;61.19;94081.53;5071645;28;20491;-76
2022/11/20 00:55:56;;;;;;;2.60;1.00;;;;;;;19.08;61.00;94090.88;5053925;28;20410;-76
2022/11/20 00:58:22;;;;;;;3.07;0.97;;;;;;;19.04;61.14;94069.28;5071622;28;20467;-76
2022/11/20 01:00:49;;;;;;;3.45;1.15;;;;;;;18.97;61.80;94039.50;5071445;28;20471;-76
2022/11/20 01:03:15;;;;;;;6.43;1.40;;;;;;;18.98;61.75;94057.09;5071794;28;20501;-76
2022/11/20 01:05:41;;;;;;;4.28;1.17;;;;;;;19.00;62.48;94060.28;5071556;28;20417;-75
2022/11/20 01:08:06;;;;;;;2.90;1.20;;;;;;;18.98;62.45;94024.28;5072346;28;20413;-76
2022/11/20 01:10:31;;;;;;;4.57;1.40;;;;;;;18.83;62.63;94079.38;5071147;28;20409;-76
2022/11/20 01:15:40;;;;;;;2.83;1.20;;;;;;;18.87;62.97;94052.94;5070957;28;20413;-76
2022/11/20 01:18:06;;;;;;;3.33;1.40;;;;;;;18.90;62.77;94046.25;5084224;28;20769;-76
2022/11/20 01:20:35;;;;;;;5.75;1.60;;;;;;;18.79;63.48;94026.88;5091506;28;20403;-76
2022/11/20 01:23:02;;;;;;;4.50;1.25;;;;;;;18.73;62.83;94066.13;5091312;28;20414;-75
2022/11/20 01:25:28;;;;;;;2.90;1.10;;;;;;;18.79;61.37;93994.88;5092126;28;20446;-76
2022/11/20 01:27:53;;;;;;;2.58;1.10;;;;;;;19.01;60.81;94032.53;5073086;28;20408;-75
2022/11/20 01:30:19;;;;;;;5.00;1.33;;;;;;;18.95;60.98;94033.63;5091048;28;20408;-76
2022/11/20 01:32:44;;;;;;;1.90;1.23;;;;;;;18.92;61.13;94041.44;5082247;28;20426;-76
2022/11/20 01:35:10;;;;;;;3.43;1.10;;;;;;;18.95;61.33;94036.31;5071389;28;20436;-76
2022/11/20 01:37:35;;;;;;;2.20;1.30;;;;;;;18.89;61.32;94024.09;5085705;28;20451;-76
2022/11/20 01:40:01;;;;;;;2.23;1.00;;;;;;;18.86;61.28;94027.31;5091574;28;20408;-76
2022/11/20 01:45:53;;;;;;;2.65;1.00;;;;;;;18.74;61.29;94034.94;5090986;28;20473;-76
2022/11/20 01:48:21;;;;;;;1.90;0.93;;;;;;;18.85;61.35;94037.19;5091414;28;20462;-76
2022/11/20 01:50:47;;;;;;;1.88;0.98;;;;;;;18.89;61.16;94045.44;5090589;28;20786;-76
2022/11/20 01:53:18;;;;;;;1.67;1.02;;;;;;;18.90;61.10;94056.91;5091150;28;20485;-76
2022/11/20 01:55:49;;;;;;;3.67;1.00;;;;;;;18.89;61.82;94048.13;5090466;28;20473;-76
2022/11/20 01:58:17;;;;;;;2.42;1.35;;;;;;;18.76;62.17;94046.91;5090938;28;20490;-76
2022/11/20 02:00:42;;;;;;;3.42;1.10;;;;;;;18.69;62.06;94070.41;5072230;28;20986;-75
2022/11/20 02:03:15;;;;;;;2.90;1.07;;;;;;;18.73;62.83;94049.34;5090557;28;20419;-76
2022/11/20 02:05:47;;;;;;;1.95;1.20;;;;;;;18.67;62.68;94055.81;5062860;28;20414;-76
2022/11/20 02:08:13;;;;;;;6.37;1.30;;;;;;;18.77;62.34;94039.69;5070040;28;20409;-76
2022/11/20 02:10:39;;;;;;;1.27;0.85;;;;;;;18.62;62.28;94058.50;5070127;28;20410;-76
2022/11/20 02:15:49;;;;;;;2.90;1.00;;;;;;;18.52;62.96;94042.56;5070825;28;20511;-76
2022/11/20 02:18:18;;;;;;;2.70;1.10;;;;;;;18.46;63.57;94065.81;5088754;28;20905;-76
2022/11/20 02:20:46;;;;;;;1.90;1.10;;;;;;;18.50;62.96;94044.72;5090113;28;20426;-76
2022/11/20 02:23:20;;;;;;;1.98;0.93;;;;;;;18.58;62.56;94049.47;5090100;28;20448;-76
2022/11/20 02:25:47;;;;;;;2.00;1.00;;;;;;;18.59;62.10;94059.06;5072058;28;20416;-76
2022/11/20 02:28:13;;;;;;;2.50;1.48;;;;;;;18.58;62.87;94060.16;5069738;28;20421;-75
2022/11/20 02:30:38;;;;;;;2.57;1.10;;;;;;;18.55;63.46;94048.13;5070751;28;20466;-76
2022/11/20 02:33:03;;;;;;;2.63;0.95;;;;;;;18.57;63.43;94063.88;5070449;28;20850;-76
2022/11/20 02:35:29;;;;;;;2.63;1.20;;;;;;;18.46;63.66;94066.59;5088335;28;20921;-76
2022/11/20 02:37:56;;;;;;;1.87;1.03;;;;;;;18.43;63.78;94061.00;5078137;28;20454;-76
2022/11/20 02:40:22;;;;;;;1.75;0.93;;;;;;;18.33;63.70;94051.25;5069685;28;20422;-76
2022/11/20 02:42:47;;;;;;;2.57;1.30;;;;;;;18.48;63.22;94061.78;5069145;28;20398;-76
2022/11/20 02:45:13;;;;;;;1.90;1.00;;;;;;;18.55;63.40;94066.00;5069307;28;20413;-76
2022/11/20 02:47:38;;;;;;;3.90;1.30;;;;;;;18.35;64.15;94051.75;5069737;28;20406;-76
2022/11/20 02:50:04;;;;;;;2.83;1.13;;;;;;;18.38;64.82;94064.53;5069955;28;20484;-76
2022/11/20 02:52:30;;;;;;;4.05;1.30;;;;;;;18.36;65.04;94068.53;5069323;28;20430;-76
2022/11/20 02:54:56;;;;;;;3.20;1.25;;;;;;;18.21;65.50;94042.81;5069326;28;20478;-76
2022/11/20 02:57:21;;;;;;;2.80;1.30;;;;;;;18.26;66.04;94074.72;5069859;28;20496;-76
2022/11/20 02:59:47;;;;;;;4.33;1.70;;;;;;;18.18;66.48;94083.31;5084506;28;20921;-76
2022/11/20 03:02:12;;;;;;;4.13;1.20;;;;;;;18.18;66.88;94083.31;5081774;28;20913;-76
2022/11/20 03:04:37;;;;;;;4.43;1.60;;;;;;;18.12;67.33;94096.97;5073504;28;20413;-76
2022/11/20 03:07:03;;;;;;;5.70;1.50;;;;;;;18.09;68.02;94092.97;5051719;28;20471;-76
2022/11/20 03:09:29;;;;;;;4.63;1.65;;;;;;;18.07;68.09;94090.56;5069444;28;20413;-76
2022/11/20 03:11:54;;;;;;;5.60;1.90;;;;;;;18.08;68.46;94104.69;5051255;28;20422;-76
2022/11/20 03:14:20;;;;;;;3.77;1.50;;;;;;;18.03;67.84;94094.88;5069108;28;20445;-76
2022/11/20 03:16:45;;;;;;;4.97;1.77;;;;;;;18.07;68.24;94093.22;5069127;28;20418;-76
2022/11/20 03:19:13;;;;;;;5.60;1.65;;;;;;;18.06;67.91;94094.34;5069577;28;20421;-76
2022/11/20 03:21:38;;;;;;;3.53;1.23;;;;;;;18.08;68.19;94102.03;5087086;28;20497;-76
2022/11/20 03:24:04;;;;;;;2.25;1.23;;;;;;;18.05;68.20;94070.63;5089086;28;20896;-75
2022/11/20 03:26:30;;;;;;;5.90;1.52;;;;;;;18.07;68.17;94084.47;5089048;28;20408;-76
2022/11/20 03:28:57;;;;;;;8.00;2.10;;;;;;;18.06;68.11;94085.53;5090119;28;20410;-75
2022/11/20 03:31:26;;;;;;;3.00;1.60;;;;;;;17.90;67.96;94108.00;5089169;28;20412;-76
2022/11/20 03:33:52;;;;;;;5.28;1.73;;;;;;;17.87;68.38;94105.88;5089398;28;20420;-76
2022/11/20 03:36:19;;;;;;;3.20;1.70;;;;;;;17.88;68.55;94104.81;5076504;28;20186;-75
2022/11/20 03:38:45;;;;;;;4.25;1.65;;;;;;;17.90;68.46;94108.00;5070677;28;20225;-76
2022/11/20 03:41:13;;;;;;;5.27;1.70;;;;;;;17.93;68.35;94118.09;5088607;28;20404;-77
2022/11/20 03:43:39;;;;;;;5.18;1.30;;;;;;;17.88;68.64;94121.59;5089364;28;20400;-77
2022/11/20 03:46:05;;;;;;;2.33;1.20;;;;;;;17.90;68.35;94135.41;5089664;28;20418;-76
2022/11/20 03:48:31;;;;;;;3.05;1.40;;;;;;;17.90;68.30;94121.31;5089210;28;20469;-76
2022/11/20 03:51:17;;;;;;;2.20;1.50;;;;;;;17.92;68.20;94124.50;5087803;28;20412;-76
2022/11/20 03:53:46;;;;;;;2.20;1.00;;;;;;;17.97;68.14;94121.81;5070334;28;20817;-76
2022/11/20 03:56:14;;;;;;;1.85;0.93;;;;;;;18.06;66.40;94125.50;5053356;28;20918;-76
2022/11/20 03:58:40;;;;;;;2.78;1.10;;;;;;;17.86;66.78;94109.63;5055533;28;20673;-77
2022/11/20 04:01:18;;;;;;;3.63;1.40;;;;;;;17.82;66.45;94111.22;5072668;28;20471;-77
2022/11/20 04:03:45;;;;;;;3.78;1.30;;;;;;;17.89;66.65;94130.38;5072737;28;20418;-76
2022/11/20 04:06:12;;;;;;;2.22;0.90;;;;;;;17.89;67.09;94141.03;5074305;28;20183;-77
2022/11/20 04:08:38;;;;;;;4.28;1.80;;;;;;;17.84;67.60;94141.03;5072754;28;20416;-77
2022/11/20 04:11:13;;;;;;;5.95;1.80;;;;;;;17.85;68.04;94130.13;5074232;28;20178;-77
2022/11/20 04:13:40;;;;;;;2.13;1.05;;;;;;;17.83;67.96;94126.13;5056154;28;20193;-76
2022/11/20 04:16:06;;;;;;;2.33;1.23;;;;;;;17.82;67.74;94127.19;5074364;28;20194;-77
2022/11/20 04:18:33;;;;;;;1.95;1.20;;;;;;;17.70;67.94;94085.72;5074006;28;20205;-77
2022/11/20 04:20:59;;;;;;;3.10;1.13;;;;;;;17.75;66.96;94092.09;5062144;28;20433;-79
2022/11/20 04:23:24;;;;;;;3.80;1.43;;;;;;;17.83;66.71;94102.97;5073229;28;20421;-78
2022/11/20 04:25:50;;;;;;;2.33;1.27;;;;;;;17.85;67.17;94111.47;5088162;28;20415;-78
2022/11/20 04:28:16;;;;;;;4.03;1.23;;;;;;;17.93;66.71;94112.78;5092985;28;20499;-78
2022/11/20 04:30:41;;;;;;;2.92;1.05;;;;;;;17.86;66.69;94130.91;5073529;28;20815;-78
2022/11/20 04:33:07;;;;;;;3.20;1.13;;;;;;;17.83;66.47;94139.44;5073053;28;20421;-79
2022/11/20 04:35:36;;;;;;;3.00;1.00;;;;;;;17.64;67.18;94107.34;5086095;28;20913;-78
2022/11/20 04:38:02;;;;;;;4.07;1.20;;;;;;;17.88;66.80;94120.81;5092876;28;20428;-78
2022/11/20 04:40:28;;;;;;;1.50;0.80;;;;;;;17.87;67.35;94140.50;5075699;28;20698;-76
2022/11/20 04:42:54;;;;;;;3.35;1.23;;;;;;;17.93;67.09;94118.91;5087342;28;20417;-77
2022/11/20 04:45:20;;;;;;;4.32;1.10;;;;;;;17.82;67.05;94121.88;5071717;28;20445;-76
2022/11/20 04:47:45;;;;;;;3.67;1.20;;;;;;;17.80;66.94;94130.16;5071773;28;20834;-77
2022/11/20 04:50:11;;;;;;;1.80;0.90;;;;;;;17.81;66.63;94099.00;5072061;28;20416;-76
2022/11/20 04:52:36;;;;;;;3.13;1.00;;;;;;;17.89;66.70;94117.88;5073003;28;20425;-76
2022/11/20 04:55:02;;;;;;;3.20;1.30;;;;;;;17.88;67.43;94118.13;5071980;28;20973;-76
2022/11/20 04:57:27;;;;;;;2.50;1.23;;;;;;;17.83;67.42;94094.97;5071646;28;20413;-76
2022/11/20 04:59:53;;;;;;;3.10;1.30;;;;;;;17.76;67.82;94088.34;5071740;28;20783;-76
2022/11/20 05:02:18;;;;;;;1.80;0.90;;;;;;;17.78;67.41;94083.56;5071261;28;20485;-76
2022/11/20 05:04:44;;;;;;;4.03;1.10;;;;;;;17.84;67.44;94101.09;5071897;28;20418;-76
2022/11/20 05:07:09;;;;;;;3.77;1.20;;;;;;;17.71;67.57;94073.22;5071712;28;20479;-76
2022/11/20 05:09:34;;;;;;;2.58;0.95;;;;;;;17.86;66.46;94077.66;5071685;28;20410;-76
2022/11/20 05:12:00;;;;;;;2.40;1.07;;;;;;;17.87;66.07;94074.72;5071556;28;20930;-76
2022/11/20 05:14:25;;;;;;;1.93;0.90;;;;;;;17.86;66.61;94075.00;5064850;28;20431;-76
2022/11/20 05:16:50;;;;;;;2.50;0.70;;;;;;;17.73;65.46;94052.44;5072318;28;20178;-76
2022/11/20 05:19:16;;;;;;;3.50;1.15;;;;;;;17.89;66.14;94071.78;5048364;28;20444;-76
2022/11/20 05:21:41;;;;;;;2.47;1.00;;;;;;;17.77;65.73;94042.84;5056812;28;20779;-74
2022/11/20 05:24:07;;;;;;;3.47;0.90;;;;;;;17.97;65.88;94090.66;5088986;28;20629;-75
2022/11/20 05:26:32;;;;;;;2.03;0.90;;;;;;;18.02;65.13;94097.81;5076910;28;20216;-74
2022/11/20 05:28:58;;;;;;;2.40;0.90;;;;;;;17.92;65.30;94072.03;5071674;28;20410;-75
2022/11/20 05:31:24;;;;;;;3.63;1.20;;;;;;;17.89;65.68;94077.13;5062191;28;20854;-74
2022/11/20 05:33:50;;;;;;;1.52;1.40;;;;;;;17.99;64.81;94085.81;5083408;28;20425;-75
2022/11/20 05:36:16;;;;;;;2.75;1.00;;;;;;;17.93;65.03;94107.44;5064664;28;20232;-74
2022/11/20 05:38:42;;;;;;;4.78;1.45;;;;;;;17.91;65.32;94096.25;5057984;28;20221;-74
2022/11/20 05:41:11;;;;;;;6.63;1.60;;;;;;;17.88;65.69;94099.50;5062798;28;20277;-75
2022/11/20 05:43:38;;;;;;;3.40;1.30;;;;;;;17.85;66.23;94086.72;5068826;28;20337;-76
2022/11/20 05:46:05;;;;;;;4.00;1.40;;;;;;;17.82;65.98;94108.56;5071532;28;20417;-75
2022/11/20 05:48:32;;;;;;;3.67;1.30;;;;;;;17.93;66.02;94100.25;5071521;28;20421;-75
2022/11/20 05:50:59;;;;;;;1.80;1.10;;;;;;;17.86;65.86;94112.28;5070879;28;20432;-75
2022/11/20 05:53:24;;;;;;;3.80;1.70;;;;;;;17.77;66.14;94114.72;5071599;28;20455;-75
2022/11/20 05:56:01;;;;;;;3.60;1.30;;;;;;;17.73;66.75;94115.56;5083135;28;20565;-75
2022/11/20 05:58:26;;;;;;;3.47;1.65;;;;;;;17.79;66.88;94119.78;5067527;28;20177;-75
2022/11/20 06:00:52;;;;;;;2.03;1.10;;;;;;;17.72;67.35;94120.06;5070270;28;20487;-75
2022/11/20 06:03:17;;;;;;;2.47;0.90;;;;;;;17.70;66.29;94111.56;5070313;28;20511;-75
2022/11/20 06:05:43;;;;;;;4.30;1.40;;;;;;;17.73;67.43;94140.28;5070516;28;20410;-75
2022/11/20 06:08:08;;;;;;;1.47;1.00;;;;;;;17.80;67.35;94140.00;5071209;28;20077;-75
2022/11/20 06:10:33;;;;;;;2.50;1.03;;;;;;;17.91;67.86;94138.88;5069855;28;20405;-76
2022/11/20 06:12:59;;;;;;;3.53;1.00;;;;;;;17.94;67.60;94127.69;5068893;28;20915;-75
2022/11/20 06:15:25;;;;;;;5.75;1.75;;;;;;;17.82;68.72;94122.66;5071627;28;20178;-76
2022/11/20 06:17:54;;;;;;;2.22;1.20;;;;;;;17.80;69.08;94132.81;5070765;28;20236;-75
2022/11/20 06:20:21;;;;;;;1.88;1.15;;;;;;;17.69;69.31;94132.06;5070132;28;20189;-75
2022/11/20 06:22:46;;;;;;;4.38;1.52;;;;;;;17.73;69.67;94133.09;5051995;28;20567;-76
2022/11/20 06:25:11;;;;;;;3.42;1.60;;;;;;;17.77;69.53;94128.03;5062371;28;20175;-74
2022/11/20 06:27:37;;;;;;;2.55;1.30;;;;;;;17.84;69.47;94133.06;5064241;28;20166;-75
2022/11/20 06:30:03;;;;;;;6.97;1.50;;;;;;;17.80;69.53;94140.00;5072233;28;20246;-75
2022/11/20 06:32:29;;;;;;;4.30;1.65;;;;;;;17.79;69.42;94125.91;5070442;28;20193;-74
2022/11/20 06:34:54;;;;;;;3.47;1.50;;;;;;;17.81;68.83;94118.44;5070559;28;20171;-76
2022/11/20 06:37:20;;;;;;;2.22;0.95;;;;;;;17.86;68.07;94126.38;5079458;28;20221;-76
2022/11/20 06:39:45;;;;;;;2.80;1.13;;;;;;;17.93;69.69;94140.19;5090846;28;20209;-76
2022/11/20 06:42:10;;;;;;;7.00;2.00;;;;;;;17.93;70.01;94115.44;5091138;28;20178;-75
2022/11/20 06:44:36;;;;;;;4.85;1.75;;;;;;;18.80;66.78;94151.13;5091057;28;20178;-75
2022/11/20 06:47:01;;;;;;;7.25;2.30;;;;;;;19.28;66.75;94159.28;5090840;28;20276;-73
2022/11/20 06:49:26;;;;;;;3.05;1.30;;;;;;;20.35;63.04;94148.97;5070745;28;20177;-73
2022/11/20 06:51:52;;;;;;;2.83;1.00;;;;;;;20.90;59.44;94157.25;5070507;28;20232;-75
2022/11/20 06:54:17;;;;;;;3.13;1.40;;;;;;;21.22;58.14;94159.94;5070251;28;20197;-73
2022/11/20 06:56:48;;;;;;;5.38;1.60;;;;;;;20.86;58.45;94129.47;5052657;28;20273;-74
2022/11/20 06:59:14;;;;;;;3.88;1.38;;;;;;;20.67;59.21;94156.25;5070646;28;20193;-74
2022/11/20 07:01:39;;;;;;;1.58;1.05;;;;;;;20.46;60.59;94163.00;5066554;28;20174;-75
2022/11/20 07:04:04;;;;;;;4.75;1.40;;;;;;;20.87;60.20;94180.03;5062146;28;20205;-75
2022/11/20 07:06:30;;;;;;;7.40;2.22;;;;;;;20.96;59.30;94158.75;5064000;28;20290;-74
2022/11/20 07:08:56;;;;;;;5.65;1.60;;;;;;;20.76;59.44;94137.69;5065715;28;20675;-75
2022/11/20 07:11:23;;;;;;;4.97;1.42;;;;;;;21.00;60.13;94165.91;5070263;28;20175;-74
2022/11/20 07:13:48;;;;;;;1.98;1.25;;;;;;;21.65;57.29;94178.47;5070316;28;20209;-74
2022/11/20 07:16:15;;;;;;;4.57;1.48;;;;;;;21.99;55.70;94170.88;5070457;28;20190;-74
2022/11/20 07:18:40;;;;;;;3.33;1.30;;;;;;;21.64;55.31;94175.00;5070250;28;20190;-75
2022/11/20 07:21:08;;;;;;;4.70;1.58;;;;;;;20.81;57.96;94183.06;5070432;28;20563;-74
2022/11/20 07:23:34;;;;;;;5.55;2.05;;;;;;;20.14;59.00;94155.66;5070155;28;20181;-74
2022/11/20 07:26:10;;;;;;;3.97;1.15;;;;;;;19.59;60.79;94164.03;5070060;28;20264;-74
2022/11/20 07:28:36;;;;;;;2.28;0.98;;;;;;;19.28;62.68;94161.94;5070292;28;20174;-75
2022/11/20 07:31:02;;;;;;;1.58;1.20;;;;;;;19.12;62.89;94174.59;5072698;28;20185;-75
2022/11/20 07:33:27;;;;;;;3.90;1.70;;;;;;;18.99;64.09;94176.06;5074435;28;20194;-75
2022/11/20 07:35:53;;;;;;;3.40;1.40;;;;;;;18.89;64.40;94167.34;5073721;28;20907;-75
2022/11/20 07:38:18;;;;;;;4.00;1.42;;;;;;;18.79;64.82;94166.34;5073082;28;20220;-75
2022/11/20 07:40:44;;;;;;;3.88;1.33;;;;;;;18.74;65.77;94173.59;5073251;28;20178;-75
2022/11/20 07:43:09;;;;;;;4.07;1.55;;;;;;;18.76;65.58;94177.59;5073696;28;20694;-75
2022/11/20 07:45:34;;;;;;;4.55;1.63;;;;;;;18.62;64.45;94157.94;5073424;28;20184;-75
2022/11/20 07:48:00;;;;;;;5.30;1.20;;;;;;;18.61;64.48;94161.66;5072947;28;20456;-75
2022/11/20 07:50:25;;;;;;;5.37;1.50;;;;;;;18.51;63.16;94158.28;5090122;28;20931;-74
2022/11/20 07:52:52;;;;;;;2.85;1.40;;;;;;;18.46;64.15;94164.41;5093941;28;20208;-75
2022/11/20 07:55:17;;;;;;;4.20;1.40;;;;;;;18.48;64.55;94159.63;5094168;28;20268;-74
2022/11/20 07:57:43;;;;;;;7.40;1.20;;;;;;;18.45;65.37;94160.94;5094105;28;20669;-75
2022/11/20 08:00:10;;;;;;;2.78;1.83;;;;;;;18.48;65.76;94172.94;5094207;28;20181;-75
2022/11/20 08:02:40;;;;;;;3.53;1.42;;;;;;;18.46;65.66;94183.88;5094033;28;20271;-74
2022/11/20 08:05:06;;;;;;;5.88;2.85;;;;;;;18.49;65.16;94187.88;5093939;28;20186;-75
2022/11/20 08:07:42;;;;;;;2.72;1.10;;;;;;;18.43;65.77;94176.41;5093969;28;20228;-75
2022/11/20 08:10:10;;;;;;;1.90;1.20;;;;;;;18.44;65.21;94185.22;5093693;28;20569;-74
2022/11/20 08:15:27;;;;;;;2.90;1.83;;;;;;;18.53;66.18;94198.75;5094106;28;20235;-73
2022/11/20 08:17:58;;;;;;;5.85;2.40;;;;;;;18.65;66.22;94184.06;5070451;28;20178;-76
2022/11/20 08:20:23;;;;;;;4.80;2.15;;;;;;;18.66;64.86;94191.00;5067344;28;20998;-74
2022/11/20 08:22:49;;;;;;;6.80;1.83;;;;;;;18.81;65.97;94161.53;5063613;28;20186;-74
2022/11/20 08:25:14;;;;;;;7.55;2.00;;;;;;;18.78;64.94;94153.28;5062027;28;20230;-74
2022/11/20 08:27:39;;;;;;;7.70;1.88;;;;;;;18.99;65.11;94183.25;5059853;28;20194;-74
2022/11/20 08:30:06;;;;;;;9.52;2.50;;;;;;;19.08;65.42;94190.41;5067310;28;20265;-73
2022/11/20 08:32:34;;;;;;;5.45;1.48;;;;;;;19.02;62.78;94177.38;5048296;28;20210;-75
2022/11/20 08:35:00;;;;;;;3.90;1.90;;;;;;;18.97;65.22;94175.53;5066349;28;20721;-74
2022/11/20 08:37:25;;;;;;;3.85;1.50;;;;;;;18.99;64.37;94186.72;5063663;28;20214;-74
2022/11/20 08:39:52;;;;;;;5.53;1.80;;;;;;;18.79;64.04;94197.53;5061296;28;20190;-74
2022/11/20 08:42:17;;;;;;;2.50;1.55;;;;;;;18.76;64.98;94204.25;5062587;28;20256;-74
2022/11/20 08:44:43;;;;;;;7.40;1.92;;;;;;;18.79;66.29;94216.22;5059642;28;20667;-73
2022/11/20 08:47:08;;;;;;;5.40;1.55;;;;;;;18.66;69.61;94235.50;5050885;28;20300;-74
2022/11/20 08:49:34;;;;;;;6.97;1.63;;;;;;;18.27;74.11;94214.09;5064499;28;20210;-75
2022/11/20 08:51:59;;;;;;;4.72;1.65;;;;;;;17.76;76.63;94205.50;5062883;28;20189;-76
2022/11/20 08:54:24;;;;;;;5.00;1.60;;;;;;;17.49;79.34;94211.13;5067549;28;20588;-75
2022/11/20 08:56:50;;;;;;;11.45;2.40;;;;;;;17.28;81.37;94200.53;5059169;28;20273;-77
2022/11/20 08:59:15;;;;;;;6.70;1.80;;;;;;;16.94;83.00;94191.53;5064827;28;20178;-77
2022/11/20 09:01:41;;;;;;;5.28;2.08;;;;;;;16.95;84.44;94185.16;5064903;28;20204;-76
2022/11/20 09:04:06;;;;;;;7.20;2.00;;;;;;;16.99;83.90;94191.50;5049030;28;20327;-76
2022/11/20 09:06:31;;;;;;;7.05;2.60;;;;;;;17.15;84.47;94208.25;5082468;28;20189;-75
2022/11/20 09:08:58;;;;;;;9.80;2.45;;;;;;;17.12;84.49;94203.47;5066702;28;20183;-76
2022/11/20 09:11:23;;;;;;;7.45;2.22;;;;;;;17.06;85.82;94205.31;5056829;28;20198;-75
2022/11/20 09:13:49;;;;;;;5.18;1.92;;;;;;;16.86;86.45;94214.13;5061786;28;20191;-75
2022/11/20 09:16:14;;;;;;;8.07;3.05;;;;;;;16.74;87.65;94213.56;5063862;28;20201;-74
2022/11/20 09:18:40;;;;;;;4.18;1.85;;;;;;;16.71;87.19;94208.78;5067578;28;20189;-75
2022/11/20 09:21:10;;;;;;;11.50;2.17;;;;;;;16.64;87.68;94216.22;5060383;28;20456;-74
2022/11/20 09:23:37;;;;;;;8.35;1.95;;;;;;;16.65;88.76;94212.50;5059385;28;20197;-75
2022/11/20 09:26:10;;;;;;;3.28;1.98;;;;;;;16.59;88.52;94213.53;5060765;28;20255;-75
2022/11/20 09:28:36;;;;;;;5.13;2.08;;;;;;;16.45;87.20;94204.44;5066823;28;20179;-74
2022/11/20 09:31:07;;;;;;;6.28;2.30;;;;;;;16.45;86.62;94202.59;5068522;28;20261;-75
2022/11/20 09:33:32;;;;;;;9.82;2.10;;;;;;;16.38;87.68;94195.94;5066120;28;20206;-76
2022/11/20 09:35:57;;;;;;;6.50;1.90;;;;;;;16.34;87.49;94177.09;5067757;28;20175;-78
2022/11/20 09:38:23;;;;;;;8.48;3.40;;;;;;;16.41;88.40;94177.63;5024928;28;1180159;-76
2022/11/20 09:41:04;;;;;;;7.10;3.38;;;;;;;16.51;89.49;94164.38;5067838;28;20196;-76
2022/11/20 09:43:54;;;;;;;8.70;3.53;;;;;;;16.56;89.52;94129.81;5066791;28;20183;-76
2022/11/20 09:46:35;;;;;;;8.40;2.85;;;;;;;16.91;88.42;94154.81;5064348;28;20240;-76
2022/11/20 09:49:29;;;;;;;10.85;2.78;;;;;;;17.08;89.00;94142.03;5064112;28;20186;-76
2022/11/20 09:52:00;;;;;;;7.88;3.22;;;;;;;17.35;88.35;94165.66;5064668;28;22170;-75
2022/11/20 09:54:35;;;;;;;5.57;2.22;;;;;;;17.51;87.47;94150.44;5065866;28;20225;-76
2022/11/20 09:57:09;;;;;;;3.65;2.10;;;;;;;17.68;86.46;94149.09;5064845;28;20185;-77
2022/11/20 09:59:50;;;;;;;5.28;2.60;;;;;;;17.75;84.56;94154.13;5061315;28;20181;-75
2022/11/20 10:02:24;;;;;;;3.45;2.03;;;;;;;18.07;84.52;94143.84;5065678;28;20178;-76
2022/11/20 10:05:28;;;;;;;7.13;1.90;;;;;;;18.43;78.78;94147.09;5067932;28;20223;-76
2022/11/20 10:08:02;;;;;;;7.57;2.38;;;;;;;18.51;82.12;94159.03;5067133;28;20192;-76
2022/11/20 10:10:41;;;;;;;11.68;3.15;;;;;;;18.70;82.02;94149.34;5067927;28;20260;-76
2022/11/20 10:13:17;;;;;;;4.72;2.20;;;;;;;18.58;80.87;94138.25;5064304;28;20205;-76
2022/11/20 10:15:57;;;;;;;4.57;2.00;;;;;;;18.68;80.36;94142.72;5065046;28;20182;-76
2022/11/20 10:18:28;;;;;;;5.22;1.90;;;;;;;18.74;81.72;94158.41;5064082;28;20208;-76
2022/11/20 10:21:16;;;;;;;8.57;2.08;;;;;;;18.88;80.91;94152.41;5067890;28;20236;-76
2022/11/20 10:24:23;;;;;;;3.28;1.60;;;;;;;18.94;79.61;94161.97;5056347;28;20174;-75
2022/11/20 10:27:10;;;;;;;3.95;1.80;;;;;;;18.86;76.75;94168.69;5058117;28;20251;-76
2022/11/20 10:29:42;;;;;;;6.25;1.77;;;;;;;18.71;77.34;94179.47;5062924;28;20186;-76
2022/11/20 10:32:14;;;;;;;4.20;1.92;;;;;;;18.66;78.21;94176.84;5059965;28;20229;-76
2022/11/20 10:35:00;;;;;;;2.88;1.73;;;;;;;18.60;79.32;94172.59;5063822;28;20397;-76
2022/11/20 10:37:28;;;;;;;6.07;2.42;;;;;;;18.54;80.46;94173.69;5060485;28;20628;-76
2022/11/20 10:40:17;;;;;;;6.10;3.65;;;;;;;18.40;79.20;94174.31;5074945;28;20583;-76
2022/11/20 10:42:44;;;;;;;11.00;4.80;;;;;;;18.30;79.49;94173.59;5060995;28;20170;-76
2022/11/20 10:45:20;;;;;;;16.90;5.35;;;;;;;18.22;80.45;94164.31;5056203;28;20191;-76
2022/11/20 10:47:45;;;;;;;18.70;5.85;;;;;;;18.03;81.81;94158.81;5058672;28;20175;-76
2022/11/20 10:50:17;;;;;;;15.68;4.20;;;;;;;17.93;82.87;94144.72;5063197;28;20295;-76
2022/11/20 10:52:52;;;;;;;15.50;3.97;;;;;;;17.86;82.79;94157.53;5065206;28;20225;-76
2022/11/20 10:55:42;;;;;;;15.90;4.20;;;;;;;17.67;83.42;94166.13;5061843;28;20197;-76
2022/11/20 10:58:16;;;;;;;9.13;3.20;;;;;;;17.58;84.40;94172.25;5056460;28;20178;-76
2022/11/20 11:00:42;;;;;;;13.95;4.75;;;;;;;17.35;84.32;94173.66;5057248;28;20181;-76
2022/11/20 11:03:30;;;;;;;7.40;2.65;;;;;;;17.18;81.20;94199.75;5059121;28;20261;-76
2022/11/20 11:06:07;;;;;;;11.45;3.92;;;;;;;16.30;83.35;94242.41;5053563;28;20457;-76
2022/11/20 11:08:38;;;;;;;14.75;2.83;;;;;;;15.41;86.95;94263.69;5053068;28;20431;-75
2022/11/20 11:11:26;;;;;;;6.72;1.48;;;;;;;14.58;85.39;94230.69;5066735;28;20421;-75
2022/11/20 11:13:51;;;;;;;4.68;1.63;;;;;;;14.08;87.97;94194.69;5068869;28;20444;-75
2022/11/20 11:16:27;;;;;;;8.83;1.70;;;;;;;14.08;87.75;94205.25;5069613;28;20402;-75
2022/11/20 11:19:06;;;;;;;6.85;1.85;;;;;;;13.96;88.18;94171.00;5069103;28;20460;-75
2022/11/20 11:21:32;;;;;;;2.88;1.20;;;;;;;14.17;87.77;94195.03;5069100;28;20906;-75
2022/11/20 11:24:03;;;;;;;3.10;1.37;;;;;;;14.12;87.54;94194.97;5078088;28;20429;-75
2022/11/20 11:26:29;;;;;;;3.25;1.40;;;;;;;13.98;88.89;94184.78;5089011;28;20465;-75
2022/11/20 11:28:58;;;;;;;3.45;1.30;;;;;;;13.88;89.95;94162.69;5089933;28;20795;-75
2022/11/20 11:31:29;;;;;;;4.32;1.20;;;;;;;13.80;89.43;94152.56;5052317;28;20577;-75
2022/11/20 11:34:12;;;;;;;4.25;1.30;;;;;;;13.69;90.66;94156.13;5061669;28;21186;-75
2022/11/20 11:36:39;;;;;;;3.03;1.52;;;;;;;13.75;91.11;94153.28;5064406;28;20429;-75
2022/11/20 11:39:11;;;;;;;3.08;1.17;;;;;;;13.79;91.87;94151.75;5057279;28;20446;-75
2022/11/20 11:41:36;;;;;;;5.18;1.60;;;;;;;13.66;92.21;94144.22;5060528;28;20437;-75
2022/11/20 11:47:24;;;;;;;3.35;1.75;;;;;;;14.20;88.44;94165.41;5057637;28;20505;-74
2022/11/20 11:50:20;;;;;;;4.40;1.60;;;;;;;14.14;86.61;94155.81;5059750;28;20492;-74
2022/11/20 11:52:49;;;;;;;4.03;1.77;;;;;;;14.30;85.70;94173.44;5059408;28;20438;-74
2022/11/20 11:55:30;;;;;;;4.65;2.10;;;;;;;14.43;86.24;94162.50;5059929;28;20491;-74